Time;durP1;ratioP1;P1;durP2;ratioP2;P2;SDS_P1;SDS_P2;PMS_P1;PMS_P2;Temp;Humidity;BMP_temperature;BMP_pressure;BME280_temperature;BME280_humidity;BME280_pressure;Samples;Min_cycle;Max_cycle;Signal;HPM_P1;HPM_P2
2023/03/24 00:01:10;;;;;;;1.33;0.87;;;;;;;14.18;62.37;99945.09;6166662;22;97207;-79
2023/03/24 00:03:36;;;;;;;2.20;1.13;;;;;;;14.19;62.45;99929.22;6168854;22;97054;-78
2023/03/24 00:06:04;;;;;;;1.00;1.00;;;;;;;14.25;62.51;99935.38;6166564;22;100313;-78
2023/03/24 00:08:34;;;;;;;1.83;0.97;;;;;;;14.24;62.46;99948.47;6167320;22;97027;-78
2023/03/24 00:11:05;;;;;;;0.87;0.80;;;;;;;14.23;62.49;99930.41;6169058;22;97109;-78
2023/03/24 00:13:37;;;;;;;1.60;0.90;;;;;;;14.26;62.67;99934.13;6166994;22;100137;-78
2023/03/24 00:16:05;;;;;;;1.50;0.83;;;;;;;14.23;62.64;99938.69;6168627;22;97073;-78
2023/03/24 00:18:31;;;;;;;1.30;1.07;;;;;;;14.24;62.73;99922.84;6166933;22;97350;-77
2023/03/24 00:20:57;;;;;;;1.20;1.10;;;;;;;14.23;62.70;99913.03;6167666;22;96856;-78
2023/03/24 00:23:31;;;;;;;0.80;0.80;;;;;;;14.27;62.89;99921.75;6167681;22;100297;-78
2023/03/24 00:26:02;;;;;;;1.97;0.93;;;;;;;14.27;62.81;99919.75;6168165;22;97189;-78
2023/03/24 00:28:33;;;;;;;1.27;1.00;;;;;;;14.31;62.78;99935.31;6166472;22;96931;-78
2023/03/24 00:31:00;;;;;;;1.77;1.20;;;;;;;14.31;62.66;99918.72;6168677;22;97033;-78
2023/03/24 00:33:27;;;;;;;1.33;0.90;;;;;;;14.29;62.75;99905.41;6167095;22;100396;-78
2023/03/24 00:35:53;;;;;;;0.73;0.73;;;;;;;14.31;62.85;99908.38;6168332;22;97207;-77
2023/03/24 00:38:18;;;;;;;1.73;1.10;;;;;;;14.31;62.60;99908.38;6166841;22;96986;-78
2023/03/24 00:40:49;;;;;;;3.03;0.90;;;;;;;14.30;62.80;99897.84;6168212;22;97294;-77
2023/03/24 00:43:14;;;;;;;1.33;1.00;;;;;;;14.28;62.98;99898.34;6167387;22;99479;-77
2023/03/24 00:45:45;;;;;;;1.30;0.90;;;;;;;14.28;62.86;99888.00;6143034;22;99317;-78
2023/03/24 00:48:16;;;;;;;2.50;1.40;;;;;;;14.33;62.80;99888.47;6142509;22;97132;-79
2023/03/24 00:50:49;;;;;;;1.13;1.03;;;;;;;14.28;63.05;99885.25;6143412;22;97017;-78
2023/03/24 00:53:16;;;;;;;0.70;0.70;;;;;;;14.28;62.87;99873.47;6142724;22;99720;-78
2023/03/24 00:55:48;;;;;;;1.30;1.20;;;;;;;14.27;63.03;99880.25;6143369;22;100205;-78
2023/03/24 00:58:16;;;;;;;3.57;1.27;;;;;;;14.31;63.11;99866.88;6143210;22;97005;-78
2023/03/24 01:00:47;;;;;;;1.50;1.33;;;;;;;14.32;63.09;99875.91;6142333;22;97006;-78
2023/03/24 01:03:13;;;;;;;1.73;1.23;;;;;;;14.31;63.22;99877.22;6142849;22;99724;-78
2023/03/24 01:05:40;;;;;;;1.27;1.00;;;;;;;14.29;63.10;99858.34;6169540;22;96952;-78
2023/03/24 01:08:06;;;;;;;1.53;0.80;;;;;;;14.28;63.28;99843.03;6170105;22;97162;-78
2023/03/24 01:10:41;;;;;;;0.97;0.77;;;;;;;14.25;63.42;99844.84;6143686;22;96901;-79
2023/03/24 01:13:07;;;;;;;0.80;0.80;;;;;;;14.21;63.42;99854.75;6142496;22;99236;-78
2023/03/24 01:15:35;;;;;;;1.17;0.70;;;;;;;14.23;63.43;99839.09;6141620;22;99011;-78
2023/03/24 01:18:01;;;;;;;1.00;0.90;;;;;;;14.21;63.49;99832.63;6167320;22;97253;-78
2023/03/24 01:20:31;;;;;;;1.07;0.97;;;;;;;14.23;63.66;99825.28;6141414;22;96577;-78
2023/03/24 01:22:58;;;;;;;1.10;1.00;;;;;;;14.20;63.69;99822.81;6142596;22;100783;-79
2023/03/24 01:25:24;;;;;;;1.20;0.93;;;;;;;14.23;63.63;99839.09;6168398;22;97353;-78
2023/03/24 01:27:51;;;;;;;1.73;1.17;;;;;;;14.22;63.61;99811.94;6142365;22;97043;-79
2023/03/24 01:30:21;;;;;;;1.57;1.00;;;;;;;14.21;63.73;99814.00;6170314;22;96732;-79
2023/03/24 01:32:46;;;;;;;4.30;1.10;;;;;;;14.17;63.80;99821.13;6169649;22;97975;-78
2023/03/24 01:35:12;;;;;;;1.10;1.10;;;;;;;14.19;63.80;99805.50;6143142;22;100319;-78
2023/03/24 01:37:38;;;;;;;1.43;0.83;;;;;;;14.20;63.83;99804.19;6143046;22;97018;-79
2023/03/24 01:40:11;;;;;;;1.23;1.07;;;;;;;14.15;63.87;99818.91;6169805;22;96722;-79
2023/03/24 01:42:38;;;;;;;0.77;0.77;;;;;;;14.16;63.95;99800.28;6168861;22;97524;-79
2023/03/24 01:45:55;;;;;;;4.90;1.10;;;;;;;14.17;64.49;99801.78;6169025;22;97393;-79
2023/03/24 01:48:34;;;;;;;0.80;0.80;;;;;;;14.14;64.44;99789.00;6086067;22;97214;-80
2023/03/24 01:51:06;;;;;;;1.10;1.00;;;;;;;14.14;64.14;99778.69;6169520;22;97463;-79
2023/03/24 01:53:33;;;;;;;4.93;1.13;;;;;;;14.13;64.07;99779.97;6143403;22;99515;-79
2023/03/24 01:56:01;;;;;;;1.43;0.83;;;;;;;14.11;64.10;99767.94;6168306;22;97525;-79
2023/03/24 01:58:29;;;;;;;1.43;1.27;;;;;;;14.09;64.30;99764.97;6170186;22;96584;-80
2023/03/24 02:00:56;;;;;;;2.10;1.40;;;;;;;14.11;64.44;99765.94;6142911;22;97231;-78
2023/03/24 02:03:24;;;;;;;1.13;1.00;;;;;;;14.08;64.16;99763.50;6142968;22;100200;-79
2023/03/24 02:05:52;;;;;;;1.10;0.90;;;;;;;14.08;64.52;99749.69;6169303;22;96857;-79
2023/03/24 02:08:23;;;;;;;2.80;1.10;;;;;;;14.07;64.44;99729.56;6169986;22;97009;-79
2023/03/24 02:10:52;;;;;;;3.83;1.27;;;;;;;14.06;64.45;99728.09;6142856;22;97059;-79
2023/03/24 02:13:17;;;;;;;2.87;1.07;;;;;;;14.04;64.71;99729.91;6143247;22;99856;-79
2023/03/24 02:16:03;;;;;;;2.60;1.47;;;;;;;14.00;65.25;99713.63;6143105;22;100887;-79
2023/03/24 02:19:06;;;;;;;1.80;1.30;;;;;;;14.02;65.32;99716.59;6141349;22;96860;-79
2023/03/24 02:22:22;;;;;;;2.30;1.40;;;;;;;13.99;65.59;99716.94;6142634;22;96758;-78
2023/03/24 02:24:50;;;;;;;3.90;1.10;;;;;;;14.01;64.79;99706.09;6121428;22;100959;-78
2023/03/24 02:27:31;;;;;;;2.20;1.33;;;;;;;14.02;64.88;99708.31;6143800;22;99081;-79
2023/03/24 02:30:13;;;;;;;2.20;0.70;;;;;;;14.02;65.64;99707.59;6169457;22;96985;-79
2023/03/24 02:33:00;;;;;;;1.30;1.20;;;;;;;14.01;65.83;99693.00;6143760;22;96621;-78
2023/03/24 02:35:40;;;;;;;2.17;1.07;;;;;;;14.04;65.60;99700.22;6142118;22;99663;-79
2023/03/24 02:38:21;;;;;;;1.23;1.03;;;;;;;14.06;65.63;99689.38;6141863;22;100495;-79
2023/03/24 02:41:00;;;;;;;1.30;1.20;;;;;;;14.11;65.54;99679.44;6169309;22;97064;-78
2023/03/24 02:43:31;;;;;;;1.43;1.20;;;;;;;14.10;65.30;99705.63;6142840;22;97358;-78
2023/03/24 02:46:24;;;;;;;1.17;1.10;;;;;;;14.14;65.69;99681.88;6169238;22;97026;-80
2023/03/24 02:49:25;;;;;;;2.40;1.27;;;;;;;14.13;65.98;99682.44;6141583;22;101065;-79
2023/03/24 02:52:05;;;;;;;1.20;1.10;;;;;;;14.15;65.56;99671.56;6063860;22;97308;-79
2023/03/24 02:54:39;;;;;;;1.23;1.13;;;;;;;14.16;65.28;99670.28;6170482;22;96627;-78
2023/03/24 02:57:12;;;;;;;3.53;1.00;;;;;;;14.17;65.34;99666.25;6169376;22;97011;-78
2023/03/24 02:59:59;;;;;;;1.40;1.33;;;;;;;14.19;65.14;99656.13;6169615;22;97011;-79
2023/03/24 03:02:50;;;;;;;1.30;1.20;;;;;;;14.18;66.12;99651.84;6142263;22;97016;-78
2023/03/24 03:05:35;;;;;;;1.00;1.00;;;;;;;14.18;66.17;99645.56;6143295;22;97020;-79
2023/03/24 03:08:04;;;;;;;1.20;0.93;;;;;;;14.18;65.33;99632.50;6169087;22;97710;-80
2023/03/24 03:10:36;;;;;;;1.47;1.30;;;;;;;14.23;65.49;99653.75;6142469;22;99221;-79
2023/03/24 03:13:11;;;;;;;1.33;1.27;;;;;;;14.24;65.57;99646.19;6169728;22;96971;-79
2023/03/24 03:15:41;;;;;;;0.77;0.77;;;;;;;14.26;65.40;99624.25;6142812;22;96594;-79
2023/03/24 03:18:21;;;;;;;1.33;1.23;;;;;;;14.26;65.87;99619.44;6169158;22;97101;-79
2023/03/24 03:20:51;;;;;;;0.97;0.93;;;;;;;14.26;65.69;99610.44;6170064;22;97610;-77
2023/03/24 03:23:32;;;;;;;0.80;0.80;;;;;;;14.32;65.87;99621.38;6142788;22;97788;-80
2023/03/24 03:26:04;;;;;;;1.30;0.97;;;;;;;14.30;65.53;99619.16;6169803;22;96996;-79
2023/03/24 03:28:32;;;;;;;1.40;1.03;;;;;;;14.31;65.62;99606.06;6169616;22;99565;-79
2023/03/24 03:31:08;;;;;;;2.20;1.23;;;;;;;14.33;65.99;99604.22;6141725;22;98694;-79
2023/03/24 03:33:45;;;;;;;1.03;0.93;;;;;;;14.37;65.76;99592.81;6169761;22;96785;-80
2023/03/24 03:36:21;;;;;;;6.53;1.03;;;;;;;14.38;65.87;99597.81;6141960;22;96824;-79
2023/03/24 03:38:51;;;;;;;1.53;0.80;;;;;;;14.41;65.84;99584.91;6169232;22;97179;-79
2023/03/24 03:41:17;;;;;;;1.10;1.10;;;;;;;14.41;65.70;99618.88;6142512;22;101199;-80
2023/03/24 03:43:45;;;;;;;1.17;1.07;;;;;;;14.45;65.85;99579.75;6169298;22;96933;-79
2023/03/24 03:46:11;;;;;;;1.10;0.90;;;;;;;14.47;65.82;99586.25;6142969;22;97084;-79
2023/03/24 03:48:39;;;;;;;1.30;1.03;;;;;;;14.47;65.94;99583.47;6142487;22;100767;-79
2023/03/24 03:51:06;;;;;;;0.90;0.90;;;;;;;14.48;65.93;99573.16;6169749;22;96930;-79
2023/03/24 03:53:50;;;;;;;0.93;0.90;;;;;;;14.49;66.73;99569.09;6142317;22;97028;-79
2023/03/24 03:56:19;;;;;;;1.17;0.90;;;;;;;14.52;66.13;99559.69;6169565;22;96524;-80
2023/03/24 03:58:46;;;;;;;0.83;0.83;;;;;;;14.53;66.23;99567.44;6169574;22;97217;-79
2023/03/24 04:01:20;;;;;;;1.83;1.00;;;;;;;14.58;66.46;99560.28;6168615;22;96656;-79
2023/03/24 04:04:02;;;;;;;0.80;0.80;;;;;;;14.60;66.35;99557.69;6142384;22;96668;-79
2023/03/24 04:06:39;;;;;;;1.03;0.93;;;;;;;14.63;66.73;99564.91;6169457;22;97397;-79
2023/03/24 04:09:27;;;;;;;1.30;1.20;;;;;;;14.63;66.53;99560.13;6169132;22;96751;-79
2023/03/24 04:12:23;;;;;;;1.00;0.83;;;;;;;14.67;66.88;99548.69;6142355;22;99957;-79
2023/03/24 04:15:00;;;;;;;0.73;0.73;;;;;;;14.72;66.36;99551.28;6169594;22;97148;-78
2023/03/24 04:17:34;;;;;;;1.10;1.10;;;;;;;14.74;66.28;99542.47;6170092;22;97079;-79
2023/03/24 04:20:18;;;;;;;0.80;0.80;;;;;;;14.74;66.69;99550.75;6171901;22;98474;-80
2023/03/24 04:23:01;;;;;;;1.00;1.00;;;;;;;14.76;66.32;99537.84;6145785;22;97268;-79
2023/03/24 04:25:43;;;;;;;1.00;0.90;;;;;;;14.75;66.23;99546.69;6172695;22;96811;-79
2023/03/24 04:28:25;;;;;;;1.53;1.17;;;;;;;14.78;66.43;99546.34;6144627;22;96940;-79
2023/03/24 04:31:06;;;;;;;1.10;1.00;;;;;;;14.75;66.52;99544.66;6172343;22;97916;-78
2023/03/24 04:34:15;;;;;;;1.37;1.10;;;;;;;14.73;67.05;99540.97;6172483;22;96701;-79
2023/03/24 04:36:44;;;;;;;1.93;1.03;;;;;;;14.73;66.37;99543.72;5997001;23;97599;-79
2023/03/24 04:39:15;;;;;;;1.73;1.10;;;;;;;14.74;66.35;99540.41;5996430;23;97513;-78
2023/03/24 04:41:42;;;;;;;2.40;1.07;;;;;;;14.77;66.23;99544.13;6104003;22;97533;-79
2023/03/24 04:44:09;;;;;;;1.27;1.17;;;;;;;14.78;66.33;99529.00;6171880;22;97071;-80
2023/03/24 04:46:35;;;;;;;1.53;1.17;;;;;;;14.81;66.25;99541.72;6141553;22;97204;-79
2023/03/24 04:49:01;;;;;;;1.30;1.27;;;;;;;14.79;66.58;99525.66;6145294;22;97198;-79
2023/03/24 04:51:27;;;;;;;1.20;1.10;;;;;;;14.76;66.39;99539.88;6172113;22;97318;-79
2023/03/24 04:53:53;;;;;;;1.37;1.30;;;;;;;14.78;66.33;99540.81;6172463;22;97099;-80
2023/03/24 04:56:27;;;;;;;2.30;2.13;;;;;;;14.78;66.65;99517.91;6173022;22;97060;-80
2023/03/24 04:58:52;;;;;;;1.33;1.30;;;;;;;14.74;66.97;99518.25;6145326;22;96921;-79
2023/03/24 05:01:21;;;;;;;1.67;1.57;;;;;;;14.74;66.95;99526.56;6171132;22;96916;-80
2023/03/24 05:03:47;;;;;;;1.00;1.00;;;;;;;14.72;66.99;99531.91;6146034;22;99474;-81
2023/03/24 05:06:13;;;;;;;2.23;2.00;;;;;;;14.73;67.00;99504.97;6172145;22;96655;-80
2023/03/24 05:08:39;;;;;;;1.63;1.53;;;;;;;14.75;67.13;99497.59;6172290;22;96994;-81
2023/03/24 05:11:05;;;;;;;3.53;2.00;;;;;;;14.74;67.14;99495.41;6170931;22;97019;-80
2023/03/24 05:13:30;;;;;;;1.70;1.60;;;;;;;14.76;67.33;99506.66;6172909;22;98436;-79
2023/03/24 05:15:57;;;;;;;2.90;1.80;;;;;;;14.81;67.19;99489.13;6172111;22;97356;-80
2023/03/24 05:18:22;;;;;;;2.10;2.00;;;;;;;14.78;67.20;99515.91;6145809;22;97212;-80
2023/03/24 05:20:47;;;;;;;1.87;1.77;;;;;;;14.83;67.05;99498.34;6145224;22;98947;-81
2023/03/24 05:23:13;;;;;;;2.33;1.67;;;;;;;14.88;66.98;99500.22;6144093;22;102220;-78
2023/03/24 05:25:38;;;;;;;1.80;1.70;;;;;;;14.92;67.21;99489.53;6145040;22;96572;-80
2023/03/24 05:28:04;;;;;;;2.37;1.87;;;;;;;14.94;67.02;99481.41;6145862;22;96944;-80
2023/03/24 05:30:30;;;;;;;2.53;1.80;;;;;;;14.92;67.04;99480.47;6143520;22;99017;-80
2023/03/24 05:32:55;;;;;;;1.80;1.70;;;;;;;14.89;67.16;99490.66;6170379;22;97791;-80
2023/03/24 05:35:21;;;;;;;3.33;1.90;;;;;;;14.90;67.14;99500.41;6170354;22;96929;-79
2023/03/24 05:37:46;;;;;;;2.10;2.00;;;;;;;14.94;67.12;99497.28;6170481;22;96706;-78
2023/03/24 05:40:11;;;;;;;1.80;1.70;;;;;;;14.93;67.14;99479.19;6169829;22;97880;-79
2023/03/24 05:42:37;;;;;;;2.00;1.90;;;;;;;14.97;66.97;99491.41;6170492;22;97403;-80
2023/03/24 05:45:03;;;;;;;1.87;1.67;;;;;;;14.98;67.02;99494.91;6169648;22;96997;-80
2023/03/24 05:47:28;;;;;;;2.40;2.03;;;;;;;14.98;67.04;99495.63;6171060;22;96893;-77
2023/03/24 05:49:54;;;;;;;2.03;1.83;;;;;;;14.97;67.22;99479.56;6142369;22;99169;-80
2023/03/24 05:52:19;;;;;;;1.67;1.57;;;;;;;14.99;67.10;99474.97;6144284;22;98544;-81
2023/03/24 05:54:48;;;;;;;1.33;1.27;;;;;;;14.98;67.22;99462.41;6144224;22;97354;-78
2023/03/24 05:57:15;;;;;;;1.73;1.63;;;;;;;14.98;67.23;99475.53;6143181;22;96776;-80
2023/03/24 05:59:41;;;;;;;3.40;1.53;;;;;;;14.94;67.18;99478.63;6169768;22;96984;-80
2023/03/24 06:02:06;;;;;;;2.17;1.80;;;;;;;15.00;67.28;99472.94;6168972;22;96535;-79
2023/03/24 06:04:32;;;;;;;1.80;1.70;;;;;;;14.99;67.45;99477.72;6143429;22;97182;-79
2023/03/24 06:06:58;;;;;;;2.20;2.10;;;;;;;14.96;67.47;99473.28;6142692;22;97174;-80
2023/03/24 06:09:34;;;;;;;2.47;2.27;;;;;;;14.99;67.61;99483.28;6143627;22;99236;-79
2023/03/24 06:12:01;;;;;;;3.27;2.10;;;;;;;15.01;67.42;99466.09;6142544;22;100761;-79
2023/03/24 06:14:26;;;;;;;2.20;2.00;;;;;;;14.96;67.66;99478.81;6144182;22;97732;-80
2023/03/24 06:16:52;;;;;;;1.87;1.77;;;;;;;14.92;67.51;99484.00;6143640;22;97236;-78
2023/03/24 06:19:17;;;;;;;2.40;1.60;;;;;;;14.99;67.58;99477.72;6170055;22;97876;-81
2023/03/24 06:21:49;;;;;;;1.73;1.63;;;;;;;14.95;67.68;99480.13;6171177;22;97016;-80
2023/03/24 06:24:15;;;;;;;2.80;2.23;;;;;;;14.98;67.90;99503.22;6143634;22;97196;-80
2023/03/24 06:26:48;;;;;;;3.43;2.23;;;;;;;14.93;67.73;99474.41;6171281;22;97094;-80
2023/03/24 06:29:16;;;;;;;1.97;1.87;;;;;;;14.94;67.84;99542.34;6170314;22;97129;-80
2023/03/24 06:31:43;;;;;;;2.27;2.07;;;;;;;15.00;68.08;99489.56;6143810;22;99409;-80
2023/03/24 06:34:08;;;;;;;1.97;1.87;;;;;;;15.01;68.04;99477.91;6170359;22;96919;-81
2023/03/24 06:36:33;;;;;;;2.30;2.20;;;;;;;14.95;68.10;99482.91;6171160;22;96686;-79
2023/03/24 06:39:01;;;;;;;1.83;1.73;;;;;;;15.07;68.06;99482.56;6143635;22;99386;-81
2023/03/24 06:41:26;;;;;;;1.57;1.47;;;;;;;15.07;68.04;99488.09;6170403;22;97346;-80
2023/03/24 06:43:52;;;;;;;2.23;1.93;;;;;;;15.10;67.86;99498.06;6171534;22;96943;-81
2023/03/24 06:46:17;;;;;;;1.63;1.53;;;;;;;15.01;68.23;99505.63;6144245;22;96911;-79
2023/03/24 06:48:42;;;;;;;1.87;1.73;;;;;;;15.00;68.42;99515.19;6169826;22;96692;-79
2023/03/24 06:51:08;;;;;;;1.90;1.80;;;;;;;15.05;68.48;99532.94;6143885;22;99129;-81
2023/03/24 06:53:33;;;;;;;1.90;1.80;;;;;;;15.06;68.46;99562.13;6144350;22;96931;-79
2023/03/24 06:55:58;;;;;;;1.93;1.83;;;;;;;15.07;68.33;99551.81;6169875;22;97170;-80
2023/03/24 06:58:24;;;;;;;2.20;2.00;;;;;;;15.09;68.31;99536.13;6172070;22;96658;-79
2023/03/24 07:00:49;;;;;;;2.17;2.07;;;;;;;15.17;68.32;99563.81;6144386;22;98901;-82
2023/03/24 07:03:15;;;;;;;4.40;1.80;;;;;;;15.14;68.20;99551.81;6143620;22;96892;-81
2023/03/24 07:05:43;;;;;;;1.70;1.60;;;;;;;15.21;68.32;99562.19;6144811;22;96912;-79
2023/03/24 07:08:10;;;;;;;1.83;1.73;;;;;;;15.24;68.10;99565.88;6171741;22;96894;-81
2023/03/24 07:10:38;;;;;;;1.60;1.50;;;;;;;15.24;68.08;99574.94;6143749;22;99224;-81
2023/03/24 07:13:04;;;;;;;1.10;1.10;;;;;;;15.23;67.93;99572.69;6170901;22;97245;-79
2023/03/24 07:15:30;;;;;;;0.90;0.80;;;;;;;15.24;67.68;99580.47;6143948;22;96843;-79
2023/03/24 07:17:55;;;;;;;1.20;1.20;;;;;;;15.23;67.71;99592.09;6170633;22;96655;-79
2023/03/24 07:20:21;;;;;;;0.93;0.93;;;;;;;15.25;67.57;99597.81;6170151;22;96659;-80
2023/03/24 07:22:46;;;;;;;1.07;1.07;;;;;;;15.24;67.42;99604.66;6145464;22;96775;-80
2023/03/24 07:25:13;;;;;;;0.90;0.90;;;;;;;15.25;67.52;99609.66;6170350;22;97150;-78
2023/03/24 07:27:39;;;;;;;0.87;0.87;;;;;;;15.32;67.38;99619.28;6170737;22;97671;-79
2023/03/24 07:30:06;;;;;;;2.00;1.00;;;;;;;15.40;67.23;99636.66;6143916;22;99408;-79
2023/03/24 07:32:38;;;;;;;1.00;1.00;;;;;;;15.47;67.13;99627.66;6171045;22;97025;-80
2023/03/24 07:35:09;;;;;;;1.10;1.00;;;;;;;15.56;66.98;99638.97;6170460;22;96578;-79
2023/03/24 07:37:35;;;;;;;1.13;1.10;;;;;;;15.62;66.81;99642.28;6170242;22;97435;-79
2023/03/24 07:40:04;;;;;;;0.80;0.80;;;;;;;15.67;66.70;99652.47;6142365;22;100168;-79
2023/03/24 07:42:30;;;;;;;0.90;0.90;;;;;;;15.70;66.50;99665.22;6170657;22;97047;-79
2023/03/24 07:44:55;;;;;;;1.20;1.10;;;;;;;15.67;66.52;99662.84;6160359;22;97068;-79
2023/03/24 07:47:20;;;;;;;2.00;1.13;;;;;;;15.69;66.60;99690.75;6168463;22;100362;-79
2023/03/24 07:49:46;;;;;;;0.73;0.73;;;;;;;15.71;66.40;99677.81;6170431;22;97321;-79
2023/03/24 07:52:11;;;;;;;4.27;1.00;;;;;;;15.74;66.41;99704.47;6168274;22;97092;-79
2023/03/24 07:54:37;;;;;;;1.03;1.03;;;;;;;15.78;66.28;99720.72;6170098;22;97008;-80
2023/03/24 07:57:02;;;;;;;1.90;0.90;;;;;;;15.73;65.92;99722.38;6169644;22;97223;-79
2023/03/24 07:59:27;;;;;;;0.90;0.80;;;;;;;15.67;65.76;99735.66;6168869;22;99333;-79
2023/03/24 08:01:53;;;;;;;0.60;0.50;;;;;;;15.64;65.50;99728.44;6169027;22;97181;-79
2023/03/24 08:04:18;;;;;;;0.60;0.60;;;;;;;15.75;65.66;99719.78;6169384;22;97520;-80
2023/03/24 08:06:44;;;;;;;0.70;0.60;;;;;;;15.80;65.07;99737.56;6171620;22;97342;-79
2023/03/24 08:09:10;;;;;;;1.63;0.77;;;;;;;15.78;64.91;99731.81;6167805;22;99189;-80
2023/03/24 08:11:36;;;;;;;1.30;0.83;;;;;;;15.74;64.74;99748.06;6167491;22;97003;-79
2023/03/24 08:14:02;;;;;;;1.00;0.70;;;;;;;15.68;64.80;99764.16;6169302;22;96732;-80
2023/03/24 08:16:27;;;;;;;1.37;0.67;;;;;;;15.62;64.46;99774.63;6169516;22;97503;-79
2023/03/24 08:18:56;;;;;;;2.30;0.57;;;;;;;15.54;64.48;99757.97;6167717;22;99848;-79
2023/03/24 08:21:23;;;;;;;1.13;0.70;;;;;;;15.52;64.58;99755.03;6169563;22;97266;-83
2023/03/24 08:23:48;;;;;;;1.10;0.73;;;;;;;15.55;64.48;99742.09;6169168;22;96851;-79
2023/03/24 08:26:14;;;;;;;0.73;0.60;;;;;;;15.63;64.35;99760.25;6166151;22;99929;-78
2023/03/24 08:28:40;;;;;;;1.10;0.80;;;;;;;15.71;64.02;99771.34;6165981;22;100134;-79
2023/03/24 08:31:06;;;;;;;1.63;0.60;;;;;;;15.75;64.06;99747.53;6168247;22;96579;-79
2023/03/24 08:33:31;;;;;;;0.90;0.60;;;;;;;15.93;64.02;99750.53;6166598;22;96881;-78
2023/03/24 08:35:57;;;;;;;5.83;1.00;;;;;;;16.09;63.60;99761.13;6166764;22;97912;-80
2023/03/24 08:38:29;;;;;;;1.97;0.70;;;;;;;16.18;63.44;99759.84;6169226;22;96988;-79
2023/03/24 08:40:57;;;;;;;1.17;0.50;;;;;;;16.34;63.27;99759.28;6166624;22;97365;-79
2023/03/24 08:43:23;;;;;;;1.00;0.70;;;;;;;16.41;62.98;99755.78;6169373;22;97306;-81
2023/03/24 08:45:48;;;;;;;2.80;0.60;;;;;;;16.47;62.59;99752.81;6136013;22;99555;-80
2023/03/24 08:48:14;;;;;;;2.70;0.60;;;;;;;16.45;62.48;99763.75;6137536;22;100464;-79
2023/03/24 08:50:40;;;;;;;2.00;0.67;;;;;;;16.42;62.44;99775.97;6163631;22;97530;-79
2023/03/24 08:53:07;;;;;;;0.77;0.77;;;;;;;16.31;62.30;99807.59;6141221;22;96888;-80
2023/03/24 08:55:33;;;;;;;4.10;1.23;;;;;;;16.24;62.13;99774.28;6141152;22;99245;-80
2023/03/24 08:57:59;;;;;;;1.47;0.73;;;;;;;16.25;62.39;99768.16;6167602;22;97193;-79
2023/03/24 09:00:24;;;;;;;1.07;0.93;;;;;;;16.31;62.28;99776.31;6168392;22;97227;-79
2023/03/24 09:02:52;;;;;;;1.23;1.00;;;;;;;16.38;62.37;99770.06;6167305;22;96983;-80
2023/03/24 09:05:19;;;;;;;1.47;0.90;;;;;;;16.66;62.32;99783.03;6167587;22;97442;-80
2023/03/24 09:07:45;;;;;;;1.83;0.80;;;;;;;16.92;61.93;99772.28;6167900;22;97633;-79
2023/03/24 09:10:12;;;;;;;2.03;1.20;;;;;;;17.14;61.28;99781.91;6164746;22;96923;-80
2023/03/24 09:12:38;;;;;;;1.07;0.77;;;;;;;17.16;60.89;99770.94;6141806;22;97140;-80
2023/03/24 09:15:05;;;;;;;1.73;0.80;;;;;;;17.12;60.48;99778.94;6141118;22;99045;-82
2023/03/24 09:17:31;;;;;;;2.60;0.90;;;;;;;17.14;60.18;99788.19;6143568;22;100615;-80
2023/03/24 09:19:57;;;;;;;1.00;0.70;;;;;;;17.06;60.01;99790.22;6169293;22;96845;-79
2023/03/24 09:22:22;;;;;;;1.90;1.00;;;;;;;17.00;60.06;99811.91;6169722;22;97393;-78
2023/03/24 09:24:48;;;;;;;0.70;0.60;;;;;;;16.94;59.95;99808.59;6142071;22;98938;-79
2023/03/24 09:27:15;;;;;;;2.60;0.90;;;;;;;16.90;59.81;99807.50;6141297;22;100576;-79
2023/03/24 09:29:40;;;;;;;1.60;0.80;;;;;;;16.93;59.96;99812.66;6141579;22;97096;-80
2023/03/24 09:32:06;;;;;;;1.90;0.97;;;;;;;16.96;59.98;99817.13;6142488;22;97184;-80
2023/03/24 09:34:32;;;;;;;1.07;0.60;;;;;;;17.02;59.90;99825.25;6141874;22;99125;-78
2023/03/24 09:36:58;;;;;;;3.77;0.90;;;;;;;17.11;59.39;99839.34;6141916;22;100326;-77
2023/03/24 09:39:23;;;;;;;3.90;0.93;;;;;;;17.18;59.40;99844.16;6169326;22;97123;-82
2023/03/24 09:41:49;;;;;;;3.07;0.77;;;;;;;17.39;58.81;99813.34;6169436;22;97062;-80
2023/03/24 09:44:39;;;;;;;1.00;0.67;;;;;;;17.56;55.45;99824.63;6168292;22;96990;-81
2023/03/24 09:47:23;;;;;;;3.73;0.93;;;;;;;17.71;58.15;99832.91;6141437;22;99229;-80
2023/03/24 09:49:51;;;;;;;2.23;0.87;;;;;;;17.83;57.64;99847.91;6169061;22;96863;-80
2023/03/24 09:52:22;;;;;;;1.47;1.23;;;;;;;17.80;56.91;99828.84;6142014;22;96744;-81
2023/03/24 09:54:53;;;;;;;3.00;1.30;;;;;;;17.57;55.44;99828.91;6168580;22;97150;-80
2023/03/24 09:57:46;;;;;;;2.50;1.30;;;;;;;17.25;53.46;99831.53;6169495;22;99255;-81
2023/03/24 10:00:23;;;;;;;3.17;1.10;;;;;;;17.02;54.91;99842.66;6163927;22;97012;-81
2023/03/24 10:02:50;;;;;;;5.13;1.00;;;;;;;16.92;57.34;99846.56;6169119;22;96972;-80
2023/03/24 10:05:25;;;;;;;6.53;1.17;;;;;;;16.92;56.02;99844.53;6140370;22;99474;-82
2023/03/24 10:08:28;;;;;;;3.17;0.90;;;;;;;17.02;54.57;99853.78;6169696;22;97399;-80
2023/03/24 10:11:17;;;;;;;2.20;0.87;;;;;;;17.11;56.28;99858.03;5992847;23;97144;-80
2023/03/24 10:14:10;;;;;;;4.67;0.77;;;;;;;17.08;55.96;99859.16;6162645;22;97163;-79
2023/03/24 10:16:40;;;;;;;3.13;1.00;;;;;;;17.05;55.94;99863.06;6168218;22;97061;-79
2023/03/24 10:19:25;;;;;;;4.17;1.30;;;;;;;16.89;55.28;99851.19;6141182;22;98379;-79
2023/03/24 10:22:01;;;;;;;2.00;0.93;;;;;;;16.88;55.14;99868.44;6169306;22;97039;-80
2023/03/24 10:24:40;;;;;;;4.43;1.27;;;;;;;16.95;55.55;99871.19;6142891;22;97263;-79
2023/03/24 10:27:16;;;;;;;4.50;1.27;;;;;;;17.08;55.63;99859.16;6141786;22;99166;-79
2023/03/24 10:29:44;;;;;;;4.00;1.33;;;;;;;17.19;56.65;99878.97;6168079;22;96856;-81
2023/03/24 10:32:24;;;;;;;2.50;0.90;;;;;;;17.34;54.49;99872.69;6141153;22;97081;-80
2023/03/24 10:34:57;;;;;;;3.20;1.37;;;;;;;17.59;54.32;99872.84;6169092;22;97063;-81
2023/03/24 10:37:22;;;;;;;5.00;1.27;;;;;;;17.63;55.83;99871.16;6141902;22;99326;-80
2023/03/24 10:39:48;;;;;;;5.70;1.77;;;;;;;17.73;55.54;99860.94;6168150;22;97451;-79
2023/03/24 10:42:17;;;;;;;2.87;1.27;;;;;;;17.89;54.55;99869.97;6168853;22;97407;-81
2023/03/24 10:44:45;;;;;;;4.97;1.47;;;;;;;17.93;54.67;99862.72;6156655;22;97025;-81
2023/03/24 10:47:13;;;;;;;5.30;1.37;;;;;;;18.04;54.89;99871.97;6168065;22;97085;-81
2023/03/24 10:49:52;;;;;;;5.50;1.33;;;;;;;18.15;53.45;99866.69;6166343;22;100025;-79
2023/03/24 10:52:17;;;;;;;2.60;1.23;;;;;;;18.32;55.06;99871.66;6168986;22;96739;-79
2023/03/24 10:55:02;;;;;;;2.20;1.13;;;;;;;18.53;52.91;99892.34;6168663;22;96640;-79
2023/03/24 10:57:28;;;;;;;5.17;1.20;;;;;;;18.53;54.05;99897.91;6168968;22;97021;-80
2023/03/24 11:00:00;;;;;;;3.90;1.07;;;;;;;18.43;53.27;99893.50;6168589;22;97315;-77
2023/03/24 11:02:30;;;;;;;5.83;1.40;;;;;;;18.29;54.11;99895.78;6168893;22;97044;-79
2023/03/24 11:05:04;;;;;;;7.70;1.90;;;;;;;18.10;53.47;99900.31;6168966;22;96930;-80
2023/03/24 11:07:34;;;;;;;3.03;1.20;;;;;;;17.95;51.56;99882.38;6169155;22;96490;-80
2023/03/24 11:10:23;;;;;;;5.03;1.23;;;;;;;18.00;51.04;99902.22;6169410;22;96886;-79
2023/03/24 11:12:52;;;;;;;1.70;1.00;;;;;;;18.06;52.21;99886.81;6144953;22;96958;-81
2023/03/24 11:15:25;;;;;;;3.03;1.90;;;;;;;18.34;53.25;99900.41;6169224;22;96613;-80
2023/03/24 11:18:15;;;;;;;2.40;1.60;;;;;;;18.56;52.37;99907.94;6169317;22;97503;-80
2023/03/24 11:21:03;;;;;;;1.43;0.90;;;;;;;18.97;49.76;99914.91;6166061;22;99691;-80
2023/03/24 11:23:34;;;;;;;4.60;1.73;;;;;;;18.94;52.02;99913.25;6166896;22;96971;-82
2023/03/24 11:26:34;;;;;;;1.93;1.17;;;;;;;18.77;49.54;99910.41;6169338;22;97008;-80
2023/03/24 11:29:13;;;;;;;3.40;1.10;;;;;;;18.72;51.51;99905.06;6169622;22;97538;-81
2023/03/24 11:31:40;;;;;;;2.03;1.50;;;;;;;18.80;52.07;99914.09;6167434;22;99627;-79
2023/03/24 11:34:12;;;;;;;2.20;1.00;;;;;;;19.09;51.79;99909.63;6169436;22;96741;-80
2023/03/24 11:36:59;;;;;;;1.83;1.00;;;;;;;19.08;46.95;99910.94;6167007;22;96855;-79
2023/03/24 11:39:30;;;;;;;5.17;1.40;;;;;;;18.89;50.44;99925.38;6167138;22;99599;-80
2023/03/24 11:42:01;;;;;;;3.07;1.23;;;;;;;18.93;50.49;99911.03;6169580;22;97020;-80
2023/03/24 11:44:37;;;;;;;9.13;1.60;;;;;;;18.87;50.79;99913.31;6169580;22;96853;-80
2023/03/24 11:47:06;;;;;;;1.63;1.10;;;;;;;18.77;51.44;99915.97;6142289;22;97408;-79
2023/03/24 11:49:38;;;;;;;1.27;1.17;;;;;;;18.65;51.21;99915.66;6168209;22;97866;-80